Time;durP1;ratioP1;P1;durP2;ratioP2;P2;SDS_P1;SDS_P2;PMS_P1;PMS_P2;Temp;Humidity;BMP_temperature;BMP_pressure;BME280_temperature;BME280_humidity;BME280_pressure;Samples;Min_cycle;Max_cycle;Signal;HPM_P1;HPM_P2
2022/05/19 00:00:30;;;;;;;;;;;;;;;;;;5031874;28;956;-73
2022/05/19 00:02:57;;;;;;;;;;;;;;;;;;5030185;28;1914;-73
2022/05/19 00:05:25;;;;;;;;;;;;;;;;;;5012151;28;1413;-73
2022/05/19 00:07:51;;;;;;;;;;;;;;;;;;5012068;28;1060;-73
2022/05/19 00:10:18;;;;;;;;;;;;;;;;;;5012112;28;1071;-72
2022/05/19 00:12:44;;;;;;;;;;;;;;;;;;5012177;28;1064;-73
2022/05/19 00:15:12;;;;;;;;;;;;;;;;;;5012161;28;1404;-73
2022/05/19 00:17:38;;;;;;;;;;;;;;;;;;5012092;28;1079;-72
2022/05/19 00:20:06;;;;;;;;;;;;;;;;;;5011747;28;857;-73
2022/05/19 00:22:32;;;;;;;;;;;;;;;;;;5011604;28;1914;-73
2022/05/19 00:24:58;;;;;;;;;;;;;;;;;;5010553;28;1335;-72
2022/05/19 00:27:24;;;;;;;;;;;;;;;;;;5011778;28;957;-73
2022/05/19 00:29:50;;;;;;;;;;;;;;;;;;5011899;28;1067;-73
2022/05/19 00:32:22;;;;;;;;;;;;;;;;;;5011698;28;818;-73
2022/05/19 00:34:48;;;;;;;;;;;;;;;;;;5011713;28;1287;-73
2022/05/19 00:37:14;;;;;;;;;;;;;;;;;;5011388;28;949;-72
2022/05/19 00:39:41;;;;;;;;;;;;;;;;;;5010543;28;1112;-74
2022/05/19 00:44:57;;;;;;;;;;;;;;;;;;5010946;28;1396;-74
2022/05/19 00:47:24;;;;;;;;;;;;;;;;;;5011632;28;843;-72
2022/05/19 00:49:51;;;;;;;;;;;;;;;;;;5011898;28;1016;-73
2022/05/19 00:52:19;;;;;;;;;;;;;;;;;;5010797;28;1192;-73
2022/05/19 00:54:45;;;;;;;;;;;;;;;;;;5010464;28;1365;-74
2022/05/19 00:57:13;;;;;;;;;;;;;;;;;;5009719;28;1238;-73
2022/05/19 00:59:40;;;;;;;;;;;;;;;;;;5010123;28;916;-73
2022/05/19 01:02:06;;;;;;;;;;;;;;;;;;5011283;28;914;-73
2022/05/19 01:04:35;;;;;;;;;;;;;;;;;;5009890;28;1966;-73
2022/05/19 01:07:02;;;;;;;;;;;;;;;;;;5010957;28;969;-73
2022/05/19 01:09:28;;;;;;;;;;;;;;;;;;5011464;28;918;-72
2022/05/19 01:11:56;;;;;;;;;;;;;;;;;;5011353;28;799;-72
2022/05/19 01:14:22;;;;;;;;;;;;;;;;;;5009694;28;1336;-73
2022/05/19 01:16:49;;;;;;;;;;;;;;;;;;5010753;28;1091;-72
2022/05/19 01:19:16;;;;;;;;;;;;;;;;;;5011053;28;1108;-73
2022/05/19 01:21:44;;;;;;;;;;;;;;;;;;5011377;28;795;-73
2022/05/19 01:24:16;;;;;;;;;;;;;;;;;;5010811;28;1981;-72
2022/05/19 01:26:47;;;;;;;;;;;;;;;;;;5011049;28;1072;-73
2022/05/19 01:29:14;;;;;;;;;;;;;;;;;;5010986;28;771;-73
2022/05/19 01:31:45;;;;;;;;;;;;;;;;;;5011210;28;929;-73
2022/05/19 01:34:11;;;;;;;;;;;;;;;;;;5010646;28;1411;-72
2022/05/19 01:36:37;;;;;;;;;;;;;;;;;;5010413;28;996;-73
2022/05/19 01:39:05;;;;;;;;;;;;;;;;;;5009643;28;1302;-73
2022/05/19 01:41:34;;;;;;;;;;;;;;;;;;5011034;28;798;-73
2022/05/19 01:44:05;;;;;;;;;;;;;;;;;;5010624;28;1914;-73
2022/05/19 01:46:32;;;;;;;;;;;;;;;;;;5010800;28;850;-73
2022/05/19 01:48:59;;;;;;;;;;;;;;;;;;5010708;28;1005;-74
2022/05/19 01:51:26;;;;;;;;;;;;;;;;;;5011128;28;1513;-73
2022/05/19 01:53:54;;;;;;;;;;;;;;;;;;5010697;28;1303;-73
2022/05/19 01:56:21;;;;;;;;;;;;;;;;;;5011233;28;1104;-74
2022/05/19 01:58:49;;;;;;;;;;;;;;;;;;5014819;28;1111;-74
2022/05/19 02:01:17;;;;;;;;;;;;;;;;;;5014594;28;1064;-73
2022/05/19 02:03:44;;;;;;;;;;;;;;;;;;5014454;28;1973;-73
2022/05/19 02:06:11;;;;;;;;;;;;;;;;;;5017007;28;1562;-73
2022/05/19 02:08:38;;;;;;;;;;;;;;;;;;5014618;28;850;-73
2022/05/19 02:11:09;;;;;;;;;;;;;;;;;;5014522;28;1064;-72
2022/05/19 02:13:35;;;;;;;;;;;;;;;;;;5017222;28;1513;-73
2022/05/19 02:16:02;;;;;;;;;;;;;;;;;;5033774;28;1281;-73
2022/05/19 02:18:29;;;;;;;;;;;;;;;;;;5033865;28;933;-73
2022/05/19 02:23:24;;;;;;;;;;;;;;;;;;5025140;28;1976;-74
2022/05/19 02:25:51;;;;;;;;;;;;;;;;;;5013573;28;1166;-75
2022/05/19 02:28:17;;;;;;;;;;;;;;;;;;5013211;28;1251;-75
2022/05/19 02:30:44;;;;;;;;;;;;;;;;;;5013586;28;855;-74
2022/05/19 02:33:12;;;;;;;;;;;;;;;;;;5013268;28;1345;-74
2022/05/19 02:35:39;;;;;;;;;;;;;;;;;;5012288;28;1564;-74
2022/05/19 02:38:06;;;;;;;;;;;;;;;;;;5013026;28;1039;-76
2022/05/19 02:40:33;;;;;;;;;;;;;;;;;;5012281;28;1360;-74
2022/05/19 02:42:59;;;;;;;;;;;;;;;;;;5013131;28;1989;-74
2022/05/19 02:45:26;;;;;;;;;;;;;;;;;;5013412;28;957;-74
2022/05/19 02:47:52;;;;;;;;;;;;;;;;;;5013062;28;803;-75
2022/05/19 02:50:20;;;;;;;;;;;;;;;;;;5013100;28;806;-75
2022/05/19 02:52:48;;;;;;;;;;;;;;;;;;5012665;28;1369;-75
2022/05/19 02:55:14;;;;;;;;;;;;;;;;;;5013143;28;996;-75
2022/05/19 02:57:40;;;;;;;;;;;;;;;;;;5012842;28;814;-75
2022/05/19 03:00:08;;;;;;;;;;;;;;;;;;5011788;28;1218;-75
2022/05/19 03:02:34;;;;;;;;;;;;;;;;;;5013089;28;1429;-74
2022/05/19 03:05:00;;;;;;;;;;;;;;;;;;5012998;28;1981;-75
2022/05/19 03:07:26;;;;;;;;;;;;;;;;;;5012224;28;1119;-75
2022/05/19 03:09:54;;;;;;;;;;;;;;;;;;5012643;28;1001;-75
2022/05/19 03:12:20;;;;;;;;;;;;;;;;;;5012308;28;1397;-75
2022/05/19 03:14:47;;;;;;;;;;;;;;;;;;5012919;28;1075;-75
2022/05/19 03:17:13;;;;;;;;;;;;;;;;;;5012846;28;1135;-74
2022/05/19 03:19:40;;;;;;;;;;;;;;;;;;5015778;28;996;-75
2022/05/19 03:22:06;;;;;;;;;;;;;;;;;;5015150;28;1379;-75
2022/05/19 03:24:32;;;;;;;;;;;;;;;;;;5012911;28;1914;-76
2022/05/19 03:27:00;;;;;;;;;;;;;;;;;;5012501;28;1057;-77
2022/05/19 03:29:26;;;;;;;;;;;;;;;;;;5005651;28;1411;-75
2022/05/19 03:31:53;;;;;;;;;;;;;;;;;;5012310;28;1324;-73
2022/05/19 03:34:19;;;;;;;;;;;;;;;;;;5012297;28;1060;-75
2022/05/19 03:36:45;;;;;;;;;;;;;;;;;;5012140;28;1072;-75
2022/05/19 03:39:12;;;;;;;;;;;;;;;;;;5012277;28;1140;-74
2022/05/19 03:41:38;;;;;;;;;;;;;;;;;;5012303;28;1318;-75
2022/05/19 03:44:06;;;;;;;;;;;;;;;;;;5011783;28;1985;-75
2022/05/19 03:46:33;;;;;;;;;;;;;;;;;;5011938;28;960;-75
2022/05/19 03:48:59;;;;;;;;;;;;;;;;;;5012230;28;847;-75
2022/05/19 03:51:26;;;;;;;;;;;;;;;;;;5011889;28;1329;-75
2022/05/19 03:53:53;;;;;;;;;;;;;;;;;;5027125;28;1275;-75
2022/05/19 03:56:19;;;;;;;;;;;;;;;;;;5011782;28;925;-76
2022/05/19 03:58:48;;;;;;;;;;;;;;;;;;5012095;28;874;-76
2022/05/19 04:01:16;;;;;;;;;;;;;;;;;;5011706;28;1337;-76
2022/05/19 04:03:42;;;;;;;;;;;;;;;;;;5011678;28;1982;-76
2022/05/19 04:06:08;;;;;;;;;;;;;;;;;;5011615;28;1127;-75
2022/05/19 04:08:34;;;;;;;;;;;;;;;;;;5011953;28;933;-75
2022/05/19 04:11:01;;;;;;;;;;;;;;;;;;5011609;28;1661;-75
2022/05/19 04:13:27;;;;;;;;;;;;;;;;;;5011539;28;1631;-75
2022/05/19 04:15:53;;;;;;;;;;;;;;;;;;5011577;28;803;-75
2022/05/19 04:18:21;;;;;;;;;;;;;;;;;;5011448;28;794;-75
2022/05/19 04:20:47;;;;;;;;;;;;;;;;;;5009340;28;1115;-75
2022/05/19 04:23:13;;;;;;;;;;;;;;;;;;5009635;28;1337;-75
2022/05/19 04:25:39;;;;;;;;;;;;;;;;;;5010151;28;1975;-75
2022/05/19 04:28:06;;;;;;;;;;;;;;;;;;5011131;28;1042;-74
2022/05/19 04:30:32;;;;;;;;;;;;;;;;;;5011520;28;613;-75
2022/05/19 04:33:02;;;;;;;;;;;;;;;;;;5011537;28;1299;-75
2022/05/19 04:35:29;;;;;;;;;;;;;;;;;;5011503;28;799;-75
2022/05/19 04:37:56;;;;;;;;;;;;;;;;;;5011234;28;1135;-74
2022/05/19 04:40:22;;;;;;;;;;;;;;;;;;5007944;28;1393;-74
2022/05/19 04:42:48;;;;;;;;;;;;;;;;;;5016033;28;1679;-74
2022/05/19 04:45:16;;;;;;;;;;;;;;;;;;5008478;28;1979;-74
2022/05/19 04:47:42;;;;;;;;;;;;;;;;;;5013611;28;1194;-74
2022/05/19 04:50:09;;;;;;;;;;;;;;;;;;5010589;28;1285;-73
2022/05/19 04:52:36;;;;;;;;;;;;;;;;;;5009344;28;1374;-74
2022/05/19 04:55:02;;;;;;;;;;;;;;;;;;5011017;28;1080;-74
2022/05/19 04:57:29;;;;;;;;;;;;;;;;;;5007033;28;2135;-73
2022/05/19 04:59:55;;;;;;;;;;;;;;;;;;5006400;28;1962;-74
2022/05/19 05:02:21;;;;;;;;;;;;;;;;;;5010930;28;1288;-74
2022/05/19 05:04:47;;;;;;;;;;;;;;;;;;5010711;28;2006;-74
2022/05/19 05:07:13;;;;;;;;;;;;;;;;;;5010258;28;1139;-75
2022/05/19 05:09:42;;;;;;;;;;;;;;;;;;5026135;28;1235;-74
2022/05/19 05:12:09;;;;;;;;;;;;;;;;;;5010493;28;1677;-74
2022/05/19 05:14:35;;;;;;;;;;;;;;;;;;5010751;28;779;-74
2022/05/19 05:17:02;;;;;;;;;;;;;;;;;;5010381;28;799;-74
2022/05/19 05:19:29;;;;;;;;;;;;;;;;;;5010834;28;1068;-74
2022/05/19 05:21:56;;;;;;;;;;;;;;;;;;5010173;28;1309;-74
2022/05/19 05:24:22;;;;;;;;;;;;;;;;;;5010620;28;1906;-74
2022/05/19 05:26:49;;;;;;;;;;;;;;;;;;5010653;28;799;-73
2022/05/19 05:29:15;;;;;;;;;;;;;;;;;;5010377;28;1048;-74
2022/05/19 05:31:42;;;;;;;;;;;;;;;;;;5010144;28;1555;-74
2022/05/19 05:34:08;;;;;;;;;;;;;;;;;;5014299;28;1151;-74
2022/05/19 05:36:34;;;;;;;;;;;;;;;;;;5014513;28;806;-74
2022/05/19 05:39:00;;;;;;;;;;;;;;;;;;5010877;28;1472;-75
2022/05/19 05:41:26;;;;;;;;;;;;;;;;;;5017361;28;1591;-75
2022/05/19 05:43:54;;;;;;;;;;;;;;;;;;5013070;28;1935;-75
2022/05/19 05:46:20;;;;;;;;;;;;;;;;;;5009018;28;1482;-75
2022/05/19 05:48:48;;;;;;;;;;;;;;;;;;5015981;28;1108;-76
2022/05/19 05:51:15;;;;;;;;;;;;;;;;;;5005826;28;1404;-76
2022/05/19 05:53:42;;;;;;;;;;;;;;;;;;5011669;28;1102;-75
2022/05/19 05:56:09;;;;;;;;;;;;;;;;;;5010435;28;1591;-75
2022/05/19 05:58:38;;;;;;;;;;;;;;;;;;5013053;28;1625;-75
2022/05/19 06:01:06;;;;;;;;;;;;;;;;;;5027873;28;2262;-75
2022/05/19 06:03:32;;;;;;;;;;;;;;;;;;5002679;28;1339;-75
2022/05/19 06:05:59;;;;;;;;;;;;;;;;;;5008299;28;1974;-75
2022/05/19 06:08:25;;;;;;;;;;;;;;;;;;5011311;28;1358;-76
2022/05/19 06:10:51;;;;;;;;;;;;;;;;;;5014417;28;1324;-75
2022/05/19 06:13:17;;;;;;;;;;;;;;;;;;5012850;28;1414;-76
2022/05/19 06:15:44;;;;;;;;;;;;;;;;;;5008477;28;1450;-75
2022/05/19 06:18:11;;;;;;;;;;;;;;;;;;5010362;28;1413;-75
2022/05/19 06:20:38;;;;;;;;;;;;;;;;;;5019038;28;1471;-76
2022/05/19 06:23:04;;;;;;;;;;;;;;;;;;5013743;28;1413;-75
2022/05/19 06:25:32;;;;;;;;;;;;;;;;;;5013603;28;1997;-73
2022/05/19 06:27:58;;;;;;;;;;;;;;;;;;5013217;28;929;-75
2022/05/19 06:30:24;;;;;;;;;;;;;;;;;;5012799;28;1421;-75
2022/05/19 06:32:51;;;;;;;;;;;;;;;;;;5013305;28;1583;-75
2022/05/19 06:35:19;;;;;;;;;;;;;;;;;;5013622;28;1107;-76
2022/05/19 06:37:46;;;;;;;;;;;;;;;;;;5009436;28;1443;-75
2022/05/19 06:40:13;;;;;;;;;;;;;;;;;;5012480;28;1426;-75
2022/05/19 06:42:39;;;;;;;;;;;;;;;;;;5010872;28;1476;-75
2022/05/19 06:45:08;;;;;;;;;;;;;;;;;;5011634;28;1910;-77
2022/05/19 06:47:36;;;;;;;;;;;;;;;;;;5010997;28;1393;-78
2022/05/19 06:50:04;;;;;;;;;;;;;;;;;;5013674;28;1366;-74
2022/05/19 06:52:33;;;;;;;;;;;;;;;;;;5011133;28;1503;-75
2022/05/19 06:55:00;;;;;;;;;;;;;;;;;;5011109;28;1147;-77
2022/05/19 06:57:26;;;;;;;;;;;;;;;;;;5012707;28;959;-76
2022/05/19 06:59:53;;;;;;;;;;;;;;;;;;5011463;28;1608;-76
2022/05/19 07:02:19;;;;;;;;;;;;;;;;;;5017096;28;1435;-76
2022/05/19 07:04:46;;;;;;;;;;;;;;;;;;5014003;28;1910;-77
2022/05/19 07:07:12;;;;;;;;;;;;;;;;;;5014479;28;1431;-76
2022/05/19 07:09:40;;;;;;;;;;;;;;;;;;5009546;28;1370;-76
2022/05/19 07:12:07;;;;;;;;;;;;;;;;;;5010649;28;1527;-75
2022/05/19 07:14:34;;;;;;;;;;;;;;;;;;5012656;28;1653;-76
2022/05/19 07:17:00;;;;;;;;;;;;;;;;;;5009804;28;1480;-75
2022/05/19 07:22:14;;;;;;;;;;;;;;;;;;5011901;28;1280;-76
2022/05/19 07:24:42;;;;;;;;;;;;;;;;;;5010831;28;1981;-76
2022/05/19 07:27:08;;;;;;;;;;;;;;;;;;5009230;28;1413;-76
2022/05/19 07:29:34;;;;;;;;;;;;;;;;;;5012027;28;1606;-77
2022/05/19 07:32:01;;;;;;;;;;;;;;;;;;5012238;28;1382;-76
2022/05/19 07:34:28;;;;;;;;;;;;;;;;;;5012138;28;1115;-76
2022/05/19 07:36:55;;;;;;;;;;;;;;;;;;5011858;28;790;-76
2022/05/19 07:39:22;;;;;;;;;;;;;;;;;;5005779;28;1424;-76
2022/05/19 07:41:55;;;;;;;;;;;;;;;;;;5007394;28;1424;-76
2022/05/19 07:44:21;;;;;;;;;;;;;;;;;;5013103;28;1120;-76
2022/05/19 07:46:48;;;;;;;;;;;;;;;;;;5008589;28;1911;-76
2022/05/19 07:49:14;;;;;;;;;;;;;;;;;;5017532;28;1653;-76
2022/05/19 07:51:41;;;;;;;;;;;;;;;;;;5012132;28;1386;-77
2022/05/19 07:54:08;;;;;;;;;;;;;;;;;;5025596;28;1477;-77
2022/05/19 07:56:34;;;;;;;;;;;;;;;;;;5010351;28;1302;-77
2022/05/19 07:59:02;;;;;;;;;;;;;;;;;;5008038;28;1604;-77
2022/05/19 08:01:29;;;;;;;;;;;;;;;;;;5009808;28;1453;-77
2022/05/19 08:03:56;;;;;;;;;;;;;;;;;;5011448;28;1201;-77
2022/05/19 08:06:22;;;;;;;;;;;;;;;;;;5008270;28;1975;-77
2022/05/19 08:08:49;;;;;;;;;;;;;;;;;;5014353;28;1376;-76
2022/05/19 08:11:15;;;;;;;;;;;;;;;;;;5013403;28;1421;-75
2022/05/19 08:16:37;;;;;;;;;;;;;;;;;;4950837;29;1217;-76
2022/05/19 08:19:04;;;;;;;;;;;;;;;;;;4999968;28;1432;-77
2022/05/19 08:21:31;;;;;;;;;;;;;;;;;;5011095;28;1468;-76
2022/05/19 08:23:57;;;;;;;;;;;;;;;;;;5023539;22;4121;-72
2022/05/19 08:26:24;;;;;;;;;;;;;;;;;;4998523;28;1918;-72
2022/05/19 08:28:51;;;;;;;;;;;;;;;;;;5013130;28;1426;-71
2022/05/19 08:31:18;;;;;;;;;;;;;;;;;;5013008;28;1471;-72
2022/05/19 08:33:46;;;;;;;;;;;;;;;;;;5010984;28;1408;-73
2022/05/19 08:36:12;;;;;;;;;;;;;;;;;;4993536;28;1191;-72
2022/05/19 08:38:39;;;;;;;;;;;;;;;;;;5023497;28;1415;-73
2022/05/19 08:41:06;;;;;;;;;;;;;;;;;;5010369;28;1404;-74
2022/05/19 08:43:34;;;;;;;;;;;;;;;;;;5010832;28;1401;-72
2022/05/19 08:46:02;;;;;;;;;;;;;;;;;;5009182;28;1898;-73
2022/05/19 08:48:29;;;;;;;;;;;;;;;;;;5011296;28;1334;-73
2022/05/19 08:50:57;;;;;;;;;;;;;;;;;;5009020;28;1442;-72
2022/05/19 08:53:24;;;;;;;;;;;;;;;;;;4996336;28;1623;-74
2022/05/19 08:55:52;;;;;;;;;;;;;;;;;;5011223;28;1405;-73
2022/05/19 08:58:36;;;;;;;;;;;;;;;;;;5012692;28;1393;-73
2022/05/19 09:01:03;;;;;;;;;;;;;;;;;;5010201;28;2073;-73
2022/05/19 09:03:30;;;;;;;;;;;;;;;;;;5011024;28;1144;-73
2022/05/19 09:06:11;;;;;;;;;;;;;;;;;;5010100;28;1915;-73
2022/05/19 09:08:41;;;;;;;;;;;;;;;;;;5008436;28;1147;-73
2022/05/19 09:11:08;;;;;;;;;;;;;;;;;;4992321;28;1471;-73
2022/05/19 09:13:36;;;;;;;;;;;;;;;;;;5010841;28;1431;-72
2022/05/19 09:16:05;;;;;;;;;;;;;;;;;;5016252;28;1431;-73
2022/05/19 09:18:33;;;;;;;;;;;;;;;;;;5011088;28;1248;-74
2022/05/19 09:21:00;;;;;;;;;;;;;;;;;;5011764;28;985;-73
2022/05/19 09:23:28;;;;;;;;;;;;;;;;;;5009487;28;1454;-73
2022/05/19 09:25:59;;;;;;;;;;;;;;;;;;5000691;28;1921;-71
2022/05/19 09:28:25;;;;;;;;;;;;;;;;;;5010419;28;1104;-73
2022/05/19 09:30:52;;;;;;;;;;;;;;;;;;5010084;28;1479;-73
2022/05/19 09:33:19;;;;;;;;;;;;;;;;;;5009596;28;1403;-73
2022/05/19 09:35:47;;;;;;;;;;;;;;;;;;5008659;28;1437;-70
2022/05/19 09:38:17;;;;;;;;;;;;;;;;;;5008124;28;911;-74
2022/05/19 09:40:44;;;;;;;;;;;;;;;;;;5007708;28;1412;-74
2022/05/19 09:43:15;;;;;;;;;;;;;;;;;;5008885;28;1367;-73
2022/05/19 09:45:42;;;;;;;;;;;;;;;;;;5010367;28;1918;-74
2022/05/19 09:48:10;;;;;;;;;;;;;;;;;;5009659;28;1474;-74
2022/05/19 09:50:38;;;;;;;;;;;;;;;;;;5011103;28;1460;-73
2022/05/19 09:53:05;;;;;;;;;;;;;;;;;;5014329;28;1363;-73
2022/05/19 09:55:31;;;;;;;;;;;;;;;;;;5012115;28;1584;-73
2022/05/19 09:57:58;;;;;;;;;;;;;;;;;;5010390;28;1048;-73
2022/05/19 10:00:30;;;;;;;;;;;;;;;;;;4995712;28;1402;-75
2022/05/19 10:02:58;;;;;;;;;;;;;;;;;;5009646;28;1419;-73
2022/05/19 10:05:26;;;;;;;;;;;;;;;;;;5006600;28;1914;-74
2022/05/19 10:07:57;;;;;;;;;;;;;;;;;;5007633;28;1395;-73
2022/05/19 10:10:25;;;;;;;;;;;;;;;;;;5010182;28;1207;-74
2022/05/19 10:12:51;;;;;;;;;;;;;;;;;;5010108;28;1183;-74
2022/05/19 10:15:18;;;;;;;;;;;;;;;;;;5010293;28;1306;-74
2022/05/19 10:17:50;;;;;;;;;;;;;;;;;;5011800;28;866;-74
2022/05/19 10:20:18;;;;;;;;;;;;;;;;;;5014295;28;642;-73
2022/05/19 10:22:59;;;;;;;;;;;;;;;;;;5014364;28;1064;-75
2022/05/19 10:25:32;;;;;;;;;;;;;;;;;;5010825;28;1970;-74
2022/05/19 10:31:06;;;;;;;;;;;;;;;;;;5013807;28;861;-75
2022/05/19 10:33:37;;;;;;;;;;;;;;;;;;5012570;28;1256;-74
2022/05/19 10:36:07;;;;;;;;;;;;;;;;;;5013799;28;1216;-74
2022/05/19 10:38:37;;;;;;;;;;;;;;;;;;5013812;28;1056;-74
2022/05/19 10:41:06;;;;;;;;;;;;;;;;;;5013487;28;1052;-75
2022/05/19 10:43:37;;;;;;;;;;;;;;;;;;5013063;28;2068;-75
2022/05/19 10:46:03;;;;;;;;;;;;;;;;;;5013235;28;1959;-75
2022/05/19 10:48:44;;;;;;;;;;;;;;;;;;5013300;28;1137;-76
2022/05/19 10:51:11;;;;;;;;;;;;;;;;;;5013563;28;930;-75
2022/05/19 10:53:47;;;;;;;;;;;;;;;;;;5013236;28;1397;-73
2022/05/19 10:56:17;;;;;;;;;;;;;;;;;;5012998;28;914;-74
2022/05/19 10:58:55;;;;;;;;;;;;;;;;;;5009180;28;1962;-75
2022/05/19 11:01:26;;;;;;;;;;;;;;;;;;5013117;28;1005;-75
2022/05/19 11:04:10;;;;;;;;;;;;;;;;;;4995105;28;1321;-75
2022/05/19 11:06:49;;;;;;;;;;;;;;;;;;5012052;28;1968;-73
2022/05/19 11:09:17;;;;;;;;;;;;;;;;;;5013200;28;949;-75
2022/05/19 11:11:48;;;;;;;;;;;;;;;;;;5013144;28;1080;-73
2022/05/19 11:14:16;;;;;;;;;;;;;;;;;;5013374;28;1301;-75
2022/05/19 11:16:43;;;;;;;;;;;;;;;;;;5013700;28;958;-75
2022/05/19 11:19:12;;;;;;;;;;;;;;;;;;5028534;28;1129;-74
2022/05/19 11:21:39;;;;;;;;;;;;;;;;;;4995044;28;1115;-75
2022/05/19 11:24:07;;;;;;;;;;;;;;;;;;5012719;28;1282;-74
2022/05/19 11:26:34;;;;;;;;;;;;;;;;;;5012447;28;1979;-75
2022/05/19 11:29:18;;;;;;;;;;;;;;;;;;5012289;28;1088;-76
2022/05/19 11:31:46;;;;;;;;;;;;;;;;;;5012487;28;1088;-76
2022/05/19 11:34:16;;;;;;;;;;;;;;;;;;5012573;28;1305;-74
2022/05/19 11:36:43;;;;;;;;;;;;;;;;;;5012335;28;953;-75
2022/05/19 11:39:12;;;;;;;;;;;;;;;;;;5012681;28;1012;-72
2022/05/19 11:41:38;;;;;;;;;;;;;;;;;;5012215;28;957;-72
2022/05/19 11:44:05;;;;;;;;;;;;;;;;;;5012342;28;1369;-74
2022/05/19 11:46:32;;;;;;;;;;;;;;;;;;5012232;28;1914;-74
2022/05/19 11:57:17;;;;;;;;;;;;;;;;;;5009563;28;1454;-73
2022/05/19 11:59:46;;;;;;;;;;;;;;;;;;5011270;28;1373;-76
2022/05/19 12:02:12;;;;;;;;;;;;;;;;;;5018407;28;1385;-76
2022/05/19 12:04:41;;;;;;;;;;;;;;;;;;5013002;28;1625;-75
2022/05/19 12:07:08;;;;;;;;;;;;;;;;;;5017463;28;1918;-75
2022/05/19 12:09:43;;;;;;;;;;;;;;;;;;5011819;28;1087;-75
2022/05/19 12:12:15;;;;;;;;;;;;;;;;;;5012202;28;961;-76
2022/05/19 12:14:44;;;;;;;;;;;;;;;;;;5013733;28;1409;-76
2022/05/19 12:17:12;;;;;;;;;;;;;;;;;;5010787;28;1470;-77
2022/05/19 12:19:39;;;;;;;;;;;;;;;;;;5011597;28;1930;-75
2022/05/19 12:22:05;;;;;;;;;;;;;;;;;;5011554;28;1211;-75
2022/05/19 12:24:35;;;;;;;;;;;;;;;;;;5011049;28;1528;-76
2022/05/19 12:27:04;;;;;;;;;;;;;;;;;;5011713;28;1910;-74
2022/05/19 12:29:35;;;;;;;;;;;;;;;;;;5011984;28;1591;-75
2022/05/19 12:32:08;;;;;;;;;;;;;;;;;;5012279;28;1068;-76
2022/05/19 12:34:37;;;;;;;;;;;;;;;;;;4993523;28;1483;-76
2022/05/19 12:37:08;;;;;;;;;;;;;;;;;;5010935;28;1175;-76
2022/05/19 12:39:44;;;;;;;;;;;;;;;;;;5011492;28;1064;-76
2022/05/19 12:42:17;;;;;;;;;;;;;;;;;;5010511;28;945;-76
2022/05/19 12:44:46;;;;;;;;;;;;;;;;;;5012143;28;1465;-77
2022/05/19 12:47:13;;;;;;;;;;;;;;;;;;5010926;28;1976;-76
2022/05/19 12:49:39;;;;;;;;;;;;;;;;;;5012296;28;1480;-76
2022/05/19 12:52:09;;;;;;;;;;;;;;;;;;5014534;28;1463;-73
2022/05/19 12:54:36;;;;;;;;;;;;;;;;;;5010792;28;1414;-73
2022/05/19 12:57:23;;;;;;;;;;;;;;;;;;5011101;28;1068;-77
2022/05/19 12:59:54;;;;;;;;;;;;;;;;;;5012631;28;1412;-76
2022/05/19 13:02:31;;;;;;;;;;;;;;;;;;5010191;28;1303;-76
2022/05/19 13:04:58;;;;;;;;;;;;;;;;;;5010417;28;1420;-77
2022/05/19 13:07:25;;;;;;;;;;;;;;;;;;5011789;28;1922;-76
2022/05/19 13:09:53;;;;;;;;;;;;;;;;;;5012491;28;1362;-76
2022/05/19 13:12:20;;;;;;;;;;;;;;;;;;5009407;28;1454;-75
2022/05/19 13:14:47;;;;;;;;;;;;;;;;;;4989407;28;1514;-76
2022/05/19 13:17:24;;;;;;;;;;;;;;;;;;4992772;28;1128;-73
2022/05/19 13:19:50;;;;;;;;;;;;;;;;;;5011234;28;1615;-74
2022/05/19 13:22:19;;;;;;;;;;;;;;;;;;5008845;28;1467;-74
2022/05/19 13:24:46;;;;;;;;;;;;;;;;;;5010856;28;1329;-77
2022/05/19 13:30:23;;;;;;;;;;;;;;;;;;4993644;28;1076;-77
2022/05/19 13:32:51;;;;;;;;;;;;;;;;;;5014080;28;2202;-74
2022/05/19 13:35:18;;;;;;;;;;;;;;;;;;5010235;28;1340;-74
2022/05/19 13:37:45;;;;;;;;;;;;;;;;;;5010411;28;1206;-74
2022/05/19 13:40:12;;;;;;;;;;;;;;;;;;4992563;28;1481;-74
2022/05/19 13:42:39;;;;;;;;;;;;;;;;;;4992833;28;1160;-74
2022/05/19 13:45:06;;;;;;;;;;;;;;;;;;5009174;28;1352;-73
2022/05/19 13:47:32;;;;;;;;;;;;;;;;;;4992230;28;1922;-74
2022/05/19 13:50:00;;;;;;;;;;;;;;;;;;5010691;28;1366;-75
2022/05/19 13:52:29;;;;;;;;;;;;;;;;;;5002992;28;1286;-75
2022/05/19 13:54:55;;;;;;;;;;;;;;;;;;5012400;28;1390;-75
2022/05/19 13:57:26;;;;;;;;;;;;;;;;;;5014414;28;1225;-75
2022/05/19 13:59:52;;;;;;;;;;;;;;;;;;5014482;28;975;-76
2022/05/19 14:02:22;;;;;;;;;;;;;;;;;;5014394;28;839;-76
2022/05/19 14:04:48;;;;;;;;;;;;;;;;;;5012943;28;1432;-75
2022/05/19 14:07:16;;;;;;;;;;;;;;;;;;5016205;28;1914;-75
2022/05/19 14:09:52;;;;;;;;;;;;;;;;;;5014227;28;866;-75
2022/05/19 14:12:29;;;;;;;;;;;;;;;;;;5014115;28;962;-75
2022/05/19 14:14:58;;;;;;;;;;;;;;;;;;5015288;28;1525;-75
2022/05/19 14:17:24;;;;;;;;;;;;;;;;;;5012815;28;1361;-74
2022/05/19 14:19:50;;;;;;;;;;;;;;;;;;5012503;28;1330;-75
2022/05/19 14:22:18;;;;;;;;;;;;;;;;;;5013687;28;1155;-75
2022/05/19 14:24:45;;;;;;;;;;;;;;;;;;4995087;28;1497;-76
2022/05/19 14:27:11;;;;;;;;;;;;;;;;;;5014460;28;1914;-75
2022/05/19 14:29:39;;;;;;;;;;;;;;;;;;5012135;28;1416;-75
2022/05/19 14:32:19;;;;;;;;;;;;;;;;;;5015541;28;1595;-77
2022/05/19 14:34:46;;;;;;;;;;;;;;;;;;5010238;28;1746;-75
2022/05/19 14:37:16;;;;;;;;;;;;;;;;;;5014987;28;1354;-76
2022/05/19 14:39:46;;;;;;;;;;;;;;;;;;4995595;28;1329;-76
2022/05/19 14:44:57;;;;;;;;;;;;;;;;;;5012082;28;1405;-75
2022/05/19 14:47:25;;;;;;;;;;;;;;;;;;5010666;28;1906;-76
2022/05/19 14:49:52;;;;;;;;;;;;;;;;;;5011300;28;1342;-76
2022/05/19 14:52:19;;;;;;;;;;;;;;;;;;4994820;28;1378;-76
2022/05/19 14:54:46;;;;;;;;;;;;;;;;;;5011810;28;1409;-76
2022/05/19 14:57:13;;;;;;;;;;;;;;;;;;5012148;28;1481;-75
2022/05/19 14:59:46;;;;;;;;;;;;;;;;;;5012105;28;1406;-76
2022/05/19 15:02:13;;;;;;;;;;;;;;;;;;5013169;28;1285;-75
2022/05/19 15:04:39;;;;;;;;;;;;;;;;;;5012213;28;1428;-75
2022/05/19 15:07:06;;;;;;;;;;;;;;;;;;5013276;28;1972;-76
2022/05/19 15:09:32;;;;;;;;;;;;;;;;;;5012396;28;1423;-74
2022/05/19 15:12:00;;;;;;;;;;;;;;;;;;5018041;28;1383;-75
2022/05/19 15:14:26;;;;;;;;;;;;;;;;;;5012672;28;1375;-75
2022/05/19 15:16:52;;;;;;;;;;;;;;;;;;5013251;28;1127;-75
2022/05/19 15:19:20;;;;;;;;;;;;;;;;;;5012968;28;1411;-76
2022/05/19 15:21:46;;;;;;;;;;;;;;;;;;5012017;28;1330;-75
2022/05/19 15:24:12;;;;;;;;;;;;;;;;;;5012305;28;1370;-74
2022/05/19 15:26:38;;;;;;;;;;;;;;;;;;5012551;28;1076;-74
2022/05/19 15:29:06;;;;;;;;;;;;;;;;;;5012589;28;1914;-76
2022/05/19 15:31:32;;;;;;;;;;;;;;;;;;4994996;28;1481;-75
2022/05/19 15:33:58;;;;;;;;;;;;;;;;;;5012397;28;1437;-74
2022/05/19 15:36:24;;;;;;;;;;;;;;;;;;5012177;28;790;-74
2022/05/19 15:38:51;;;;;;;;;;;;;;;;;;5012370;28;1095;-76
2022/05/19 15:41:18;;;;;;;;;;;;;;;;;;5012439;28;1056;-75
2022/05/19 15:43:44;;;;;;;;;;;;;;;;;;5012169;28;1369;-75
2022/05/19 15:46:11;;;;;;;;;;;;;;;;;;5011973;28;716;-74
2022/05/19 15:48:38;;;;;;;;;;;;;;;;;;5012045;28;1922;-74
2022/05/19 15:51:05;;;;;;;;;;;;;;;;;;5011939;28;780;-75
2022/05/19 15:53:32;;;;;;;;;;;;;;;;;;5012161;28;933;-74
2022/05/19 15:55:58;;;;;;;;;;;;;;;;;;4994675;28;1354;-76
2022/05/19 15:58:25;;;;;;;;;;;;;;;;;;5011271;28;1481;-74
2022/05/19 16:00:52;;;;;;;;;;;;;;;;;;5018703;28;1555;-74
2022/05/19 16:03:22;;;;;;;;;;;;;;;;;;4993417;28;1453;-73
2022/05/19 16:05:49;;;;;;;;;;;;;;;;;;5014537;28;1543;-75
2022/05/19 16:08:15;;;;;;;;;;;;;;;;;;4993933;28;1981;-74
2022/05/19 16:10:41;;;;;;;;;;;;;;;;;;5011604;28;953;-75
2022/05/19 16:13:08;;;;;;;;;;;;;;;;;;4996816;28;1477;-74
2022/05/19 16:15:36;;;;;;;;;;;;;;;;;;5011934;28;1576;-74
2022/05/19 16:18:02;;;;;;;;;;;;;;;;;;5008852;28;1391;-75
2022/05/19 16:20:30;;;;;;;;;;;;;;;;;;5015956;28;1472;-75
2022/05/19 16:22:56;;;;;;;;;;;;;;;;;;5010323;28;1486;-74
2022/05/19 16:25:24;;;;;;;;;;;;;;;;;;5009339;28;1330;-74
2022/05/19 16:27:53;;;;;;;;;;;;;;;;;;5008630;28;1973;-73
2022/05/19 16:30:20;;;;;;;;;;;;;;;;;;5008741;28;1318;-73
2022/05/19 16:32:46;;;;;;;;;;;;;;;;;;5008979;28;1417;-74
2022/05/19 16:35:12;;;;;;;;;;;;;;;;;;5011322;28;1426;-74
2022/05/19 16:37:40;;;;;;;;;;;;;;;;;;5011847;28;1587;-74
2022/05/19 16:40:07;;;;;;;;;;;;;;;;;;5009302;28;1112;-73
2022/05/19 16:42:33;;;;;;;;;;;;;;;;;;5013097;28;1281;-74
2022/05/19 16:45:02;;;;;;;;;;;;;;;;;;4994088;28;1330;-73
2022/05/19 16:47:28;;;;;;;;;;;;;;;;;;5010824;28;1922;-74
2022/05/19 16:49:55;;;;;;;;;;;;;;;;;;5011231;28;748;-74
2022/05/19 16:52:21;;;;;;;;;;;;;;;;;;5011282;28;960;-75
2022/05/19 16:57:45;;;;;;;;;;;;;;;;;;4990468;28;2014;-76
2022/05/19 17:00:12;;;;;;;;;;;;;;;;;;5009006;28;1363;-74
2022/05/19 17:02:39;;;;;;;;;;;;;;;;;;4993202;28;1508;-75
2022/05/19 17:05:06;;;;;;;;;;;;;;;;;;5007033;28;1451;-73
2022/05/19 17:07:33;;;;;;;;;;;;;;;;;;5011312;28;1918;-75
2022/05/19 17:10:00;;;;;;;;;;;;;;;;;;5013746;28;1498;-73
2022/05/19 17:12:27;;;;;;;;;;;;;;;;;;5010861;28;1021;-74
2022/05/19 17:14:53;;;;;;;;;;;;;;;;;;5010144;28;1588;-73
2022/05/19 17:17:21;;;;;;;;;;;;;;;;;;4995948;28;1588;-73
2022/05/19 17:19:48;;;;;;;;;;;;;;;;;;5010938;28;1377;-71
2022/05/19 17:22:15;;;;;;;;;;;;;;;;;;4984148;28;1358;-74
2022/05/19 17:24:42;;;;;;;;;;;;;;;;;;5009437;28;1370;-74
2022/05/19 17:27:12;;;;;;;;;;;;;;;;;;5009587;28;1500;-73
2022/05/19 17:29:38;;;;;;;;;;;;;;;;;;5010742;28;1916;-73
2022/05/19 17:32:05;;;;;;;;;;;;;;;;;;5010452;28;1132;-74
2022/05/19 17:34:31;;;;;;;;;;;;;;;;;;5010681;28;1249;-73
2022/05/19 17:36:58;;;;;;;;;;;;;;;;;;4993578;28;1435;-74
2022/05/19 17:39:26;;;;;;;;;;;;;;;;;;5008231;28;1497;-74